Time;durP1;ratioP1;P1;durP2;ratioP2;P2;SDS_P1;SDS_P2;PMS_P1;PMS_P2;Temp;Humidity;BMP_temperature;BMP_pressure;BME280_temperature;BME280_humidity;BME280_pressure;Samples;Min_cycle;Max_cycle;Signal;HPM_P1;HPM_P2
2021/05/09 00:00:42;;;;;;;4.00;2.08;;;;;;;;;;5093067;28;20024;-47
2021/05/09 00:03:08;;;;;;;3.40;1.90;;;;;;;;;;5093366;28;20050;-46
2021/05/09 00:05:34;;;;;;;7.10;2.40;;;;;;;;;;5092774;28;20020;-46
2021/05/09 00:08:00;;;;;;;3.90;1.60;;;;;;;;;;5081488;28;20021;-46
2021/05/09 00:10:26;;;;;;;2.88;1.98;;;;;;;;;;5072697;28;20450;-46
2021/05/09 00:12:52;;;;;;;3.10;1.77;;;;;;;;;;5072537;28;20094;-46
2021/05/09 00:15:24;;;;;;;2.55;2.05;;;;;;;;;;5087800;28;20032;-46
2021/05/09 00:17:50;;;;;;;2.63;1.90;;;;;;;;;;5093269;28;20021;-46
2021/05/09 00:20:16;;;;;;;3.05;1.67;;;;;;;;;;5092531;28;20345;-45
2021/05/09 00:22:42;;;;;;;5.85;1.90;;;;;;;;;;5092980;28;20027;-46
2021/05/09 00:25:09;;;;;;;4.18;2.03;;;;;;;;;;5092665;28;20328;-46
2021/05/09 00:27:35;;;;;;;6.55;1.75;;;;;;;;;;5092533;28;20043;-46
2021/05/09 00:30:01;;;;;;;1.88;1.50;;;;;;;;;;5092727;28;20383;-46
2021/05/09 00:32:27;;;;;;;2.55;1.77;;;;;;;;;;5092510;28;20457;-46
2021/05/09 00:34:53;;;;;;;2.95;2.15;;;;;;;;;;5092871;28;20035;-46
2021/05/09 00:37:19;;;;;;;3.28;1.73;;;;;;;;;;5088455;28;20039;-46
2021/05/09 00:39:46;;;;;;;4.97;2.60;;;;;;;;;;5071930;28;20358;-46
2021/05/09 00:42:12;;;;;;;5.18;2.38;;;;;;;;;;5072218;28;20350;-46
2021/05/09 00:44:38;;;;;;;4.40;2.13;;;;;;;;;;5075260;28;20029;-46
2021/05/09 00:47:07;;;;;;;3.33;1.92;;;;;;;;;;5081074;28;20108;-46
2021/05/09 00:49:34;;;;;;;2.40;1.88;;;;;;;;;;5096072;28;20330;-46
2021/05/09 00:52:00;;;;;;;3.13;2.17;;;;;;;;;;5096217;28;20085;-47
2021/05/09 00:54:27;;;;;;;3.17;1.70;;;;;;;;;;5096167;28;20038;-46
2021/05/09 00:56:54;;;;;;;4.10;2.20;;;;;;;;;;5096151;28;20031;-46
2021/05/09 00:59:20;;;;;;;17.88;2.50;;;;;;;;;;5095540;28;20028;-46
2021/05/09 01:01:47;;;;;;;5.97;1.88;;;;;;;;;;5096276;28;20138;-46
2021/05/09 01:04:13;;;;;;;5.75;2.10;;;;;;;;;;5096216;28;20063;-46
2021/05/09 01:06:41;;;;;;;2.05;1.80;;;;;;;;;;5095939;28;20030;-46
2021/05/09 01:09:07;;;;;;;2.15;1.70;;;;;;;;;;5086134;28;20051;-47
2021/05/09 01:11:33;;;;;;;4.50;1.60;;;;;;;;;;5095709;28;20028;-47
2021/05/09 01:13:59;;;;;;;2.65;1.77;;;;;;;;;;5095888;28;20161;-47
2021/05/09 01:16:25;;;;;;;2.65;1.95;;;;;;;;;;5095989;28;20091;-47
2021/05/09 01:18:51;;;;;;;2.70;2.00;;;;;;;;;;5095275;28;20039;-47
2021/05/09 01:21:17;;;;;;;4.07;2.17;;;;;;;;;;5095799;28;20035;-47
2021/05/09 01:23:43;;;;;;;3.05;1.70;;;;;;;;;;5095618;28;20384;-46
2021/05/09 01:26:09;;;;;;;2.33;1.70;;;;;;;;;;5093555;28;20365;-46
2021/05/09 01:28:35;;;;;;;4.43;1.90;;;;;;;;;;5093525;28;20039;-46
2021/05/09 01:31:01;;;;;;;3.65;2.10;;;;;;;;;;5094488;28;20036;-46
2021/05/09 01:33:27;;;;;;;2.35;1.80;;;;;;;;;;5095492;28;20031;-46
2021/05/09 01:35:53;;;;;;;2.05;1.65;;;;;;;;;;5093756;28;20032;-46
2021/05/09 01:38:19;;;;;;;3.80;2.03;;;;;;;;;;5093994;28;20357;-46
2021/05/09 01:40:45;;;;;;;3.58;2.00;;;;;;;;;;5095143;28;20058;-46
2021/05/09 01:43:11;;;;;;;2.65;1.95;;;;;;;;;;5091020;28;20086;-46
2021/05/09 01:45:37;;;;;;;3.80;2.10;;;;;;;;;;5095156;28;20043;-46
2021/05/09 01:48:04;;;;;;;3.78;2.10;;;;;;;;;;5093406;28;20026;-46
2021/05/09 01:50:30;;;;;;;2.60;1.75;;;;;;;;;;5094054;28;20040;-46
2021/05/09 01:52:56;;;;;;;3.67;1.90;;;;;;;;;;5094940;28;20065;-46
2021/05/09 01:55:23;;;;;;;3.05;1.83;;;;;;;;;;5094325;28;20453;-47
2021/05/09 01:57:49;;;;;;;3.72;2.10;;;;;;;;;;5094664;28;20020;-47
2021/05/09 02:00:17;;;;;;;2.38;1.75;;;;;;;;;;5092616;28;20354;-48
2021/05/09 02:02:43;;;;;;;4.18;2.15;;;;;;;;;;5094399;28;20095;-47
2021/05/09 02:05:09;;;;;;;1.58;1.30;;;;;;;;;;5094560;28;20357;-47
2021/05/09 02:07:35;;;;;;;3.58;2.00;;;;;;;;;;5094548;28;20020;-47
2021/05/09 02:10:01;;;;;;;5.32;2.20;;;;;;;;;;5094053;28;20035;-46
2021/05/09 02:12:28;;;;;;;5.32;2.60;;;;;;;;;;5094173;28;20047;-47
2021/05/09 02:14:54;;;;;;;5.88;2.50;;;;;;;;;;5092837;28;20470;-47
2021/05/09 02:17:20;;;;;;;4.88;2.15;;;;;;;;;;5093992;28;20035;-46
2021/05/09 02:19:47;;;;;;;6.20;1.70;;;;;;;;;;5094378;28;20016;-47
2021/05/09 02:22:13;;;;;;;3.45;1.77;;;;;;;;;;5094560;28;20048;-46
2021/05/09 02:27:42;;;;;;;4.22;2.13;;;;;;;;;;5058481;28;20053;-46
2021/05/09 02:33:13;;;;;;;3.35;2.00;;;;;;;;;;5075460;28;20362;-46
2021/05/09 02:35:39;;;;;;;6.00;2.25;;;;;;;;;;5082858;28;20114;-46
2021/05/09 02:38:05;;;;;;;1.80;1.70;;;;;;;;;;5094194;28;20012;-46
2021/05/09 02:40:31;;;;;;;3.55;2.20;;;;;;;;;;5093923;28;20028;-46
2021/05/09 02:42:57;;;;;;;4.68;2.15;;;;;;;;;;5094107;28;20126;-46
2021/05/09 02:45:23;;;;;;;3.53;2.17;;;;;;;;;;5093467;28;20056;-46
2021/05/09 02:47:49;;;;;;;3.67;1.73;;;;;;;;;;5093823;28;20020;-46
2021/05/09 02:50:16;;;;;;;4.85;2.28;;;;;;;;;;5093729;28;20381;-47
2021/05/09 02:52:42;;;;;;;3.22;1.58;;;;;;;;;;5093846;28;20346;-46
2021/05/09 02:55:09;;;;;;;4.25;2.30;;;;;;;;;;5093908;28;20035;-46
2021/05/09 02:57:35;;;;;;;3.75;2.08;;;;;;;;;;5094024;28;20117;-46
2021/05/09 03:00:04;;;;;;;2.70;1.95;;;;;;;;;;5094215;28;20145;-46
2021/05/09 03:02:30;;;;;;;3.97;2.22;;;;;;;;;;5092773;28;20357;-46
2021/05/09 03:04:56;;;;;;;2.13;1.80;;;;;;;;;;5093212;28;20012;-46
2021/05/09 03:07:22;;;;;;;3.80;2.28;;;;;;;;;;5091502;28;20030;-46
2021/05/09 03:09:48;;;;;;;3.63;2.00;;;;;;;;;;5093384;28;20113;-46
2021/05/09 03:12:13;;;;;;;4.28;2.72;;;;;;;;;;5094100;28;20056;-47
2021/05/09 03:14:39;;;;;;;2.95;2.03;;;;;;;;;;5093083;28;20346;-46
2021/05/09 03:17:05;;;;;;;3.78;2.03;;;;;;;;;;5093779;28;20187;-46
2021/05/09 03:19:31;;;;;;;3.42;2.00;;;;;;;;;;5093777;28;20111;-46
2021/05/09 03:21:57;;;;;;;3.40;2.00;;;;;;;;;;5093017;28;20234;-46
2021/05/09 03:24:23;;;;;;;6.30;2.30;;;;;;;;;;5093463;28;20024;-46
2021/05/09 03:26:49;;;;;;;4.82;2.35;;;;;;;;;;5093542;28;20032;-46
2021/05/09 03:29:15;;;;;;;6.18;1.58;;;;;;;;;;5093207;28;20028;-46
2021/05/09 03:31:41;;;;;;;5.60;2.25;;;;;;;;;;5092965;28;20116;-46
2021/05/09 03:34:07;;;;;;;4.88;2.08;;;;;;;;;;5093431;28;20024;-46
2021/05/09 03:36:33;;;;;;;4.40;2.33;;;;;;;;;;5092326;28;20035;-46
2021/05/09 03:38:59;;;;;;;3.72;1.88;;;;;;;;;;5093319;28;20072;-46
2021/05/09 03:41:25;;;;;;;2.88;1.90;;;;;;;;;;5093010;28;20047;-46
2021/05/09 03:43:51;;;;;;;3.15;1.65;;;;;;;;;;5092784;28;20369;-47
2021/05/09 03:46:18;;;;;;;3.65;1.98;;;;;;;;;;5093383;28;20016;-47
2021/05/09 03:48:44;;;;;;;3.70;1.73;;;;;;;;;;5093428;28;20025;-46
2021/05/09 03:51:10;;;;;;;8.98;2.38;;;;;;;;;;5092641;28;20085;-47
2021/05/09 03:53:36;;;;;;;2.58;1.90;;;;;;;;;;5093170;28;20028;-46
2021/05/09 03:56:02;;;;;;;6.43;2.33;;;;;;;;;;5093098;28;20035;-46
2021/05/09 03:58:28;;;;;;;3.03;2.13;;;;;;;;;;5093031;28;20031;-47
2021/05/09 04:00:54;;;;;;;3.83;1.90;;;;;;;;;;5092997;28;20028;-46
2021/05/09 04:03:23;;;;;;;3.95;1.95;;;;;;;;;;5093038;28;20031;-46
2021/05/09 04:05:51;;;;;;;3.50;1.70;;;;;;;;;;5091242;28;20028;-46
2021/05/09 04:08:17;;;;;;;3.47;1.85;;;;;;;;;;5092825;28;20358;-46
2021/05/09 04:10:43;;;;;;;3.38;1.70;;;;;;;;;;5092639;28;20454;-46
2021/05/09 04:13:09;;;;;;;2.72;1.88;;;;;;;;;;5092097;28;20081;-46
2021/05/09 04:15:35;;;;;;;4.95;2.10;;;;;;;;;;5092900;28;20062;-46
2021/05/09 04:18:01;;;;;;;6.32;1.95;;;;;;;;;;5093096;28;20100;-46
2021/05/09 04:20:27;;;;;;;3.53;2.10;;;;;;;;;;5096554;28;20024;-46
2021/05/09 04:22:53;;;;;;;4.22;1.90;;;;;;;;;;5097273;28;20020;-46
2021/05/09 04:25:19;;;;;;;2.92;1.73;;;;;;;;;;5096570;28;20035;-47
2021/05/09 04:27:45;;;;;;;3.20;1.83;;;;;;;;;;5095062;28;20027;-46
2021/05/09 04:30:12;;;;;;;3.00;1.83;;;;;;;;;;5095534;28;20032;-47
2021/05/09 04:32:38;;;;;;;3.38;1.80;;;;;;;;;;5088763;28;20328;-47
2021/05/09 04:35:04;;;;;;;2.75;1.90;;;;;;;;;;5093988;28;20115;-46
2021/05/09 04:37:30;;;;;;;2.05;1.85;;;;;;;;;;5096308;28;20028;-46
2021/05/09 04:39:56;;;;;;;10.48;2.35;;;;;;;;;;5096530;28;20031;-46
2021/05/09 04:42:21;;;;;;;3.13;1.60;;;;;;;;;;5096317;28;20024;-46
2021/05/09 04:44:47;;;;;;;5.30;2.47;;;;;;;;;;5095547;28;20023;-46
2021/05/09 04:47:13;;;;;;;5.40;1.80;;;;;;;;;;5095867;28;20428;-46
2021/05/09 04:49:39;;;;;;;7.22;2.22;;;;;;;;;;5096141;28;20078;-46
2021/05/09 04:52:06;;;;;;;3.10;1.83;;;;;;;;;;5096007;28;20442;-47
2021/05/09 04:54:31;;;;;;;2.42;1.80;;;;;;;;;;5096224;28;20016;-46
2021/05/09 04:56:57;;;;;;;2.72;1.75;;;;;;;;;;5093384;28;20035;-46
2021/05/09 04:59:23;;;;;;;3.20;1.80;;;;;;;;;;5096210;28;20028;-46
2021/05/09 05:01:49;;;;;;;5.32;2.30;;;;;;;;;;5095689;28;20397;-46
2021/05/09 05:04:15;;;;;;;4.50;2.15;;;;;;;;;;5095911;28;20036;-47
2021/05/09 05:06:41;;;;;;;3.63;2.10;;;;;;;;;;5095779;28;20028;-46
2021/05/09 05:09:07;;;;;;;2.92;1.83;;;;;;;;;;5095983;28;20031;-46
2021/05/09 05:11:33;;;;;;;2.25;1.67;;;;;;;;;;5095746;28;20110;-46
2021/05/09 05:13:59;;;;;;;12.15;2.10;;;;;;;;;;5095961;28;20365;-47
2021/05/09 05:16:25;;;;;;;3.42;2.05;;;;;;;;;;5095344;28;20039;-46
2021/05/09 05:18:51;;;;;;;2.28;1.67;;;;;;;;;;5096039;28;20020;-46
2021/05/09 05:21:17;;;;;;;9.18;2.05;;;;;;;;;;5095393;28;20035;-46
2021/05/09 05:23:43;;;;;;;6.20;1.67;;;;;;;;;;5096097;28;20020;-46
2021/05/09 05:26:09;;;;;;;3.72;2.05;;;;;;;;;;5095763;28;20021;-46
2021/05/09 05:28:35;;;;;;;3.10;1.90;;;;;;;;;;5095351;28;20073;-46
2021/05/09 05:31:01;;;;;;;8.45;2.15;;;;;;;;;;5093785;28;20548;-47
2021/05/09 05:33:27;;;;;;;2.78;1.85;;;;;;;;;;5096295;28;20111;-47
2021/05/09 05:35:53;;;;;;;3.33;2.30;;;;;;;;;;5096091;28;20020;-46
2021/05/09 05:38:19;;;;;;;3.50;2.17;;;;;;;;;;5090400;28;20032;-47
2021/05/09 05:40:48;;;;;;;5.05;2.08;;;;;;;;;;5094843;28;20032;-46
2021/05/09 05:43:14;;;;;;;2.35;2.00;;;;;;;;;;5095618;28;20035;-46
2021/05/09 05:45:40;;;;;;;4.78;3.33;;;;;;;;;;5094654;28;20016;-46
2021/05/09 05:48:06;;;;;;;5.20;2.45;;;;;;;;;;5094091;28;20422;-46
2021/05/09 05:50:32;;;;;;;3.95;2.58;;;;;;;;;;5093884;28;20032;-47
2021/05/09 05:52:58;;;;;;;3.15;2.33;;;;;;;;;;5094747;28;20395;-46
2021/05/09 05:55:24;;;;;;;5.93;2.75;;;;;;;;;;5094528;28;20032;-46
2021/05/09 05:57:50;;;;;;;7.78;3.13;;;;;;;;;;5094605;28;20024;-46
2021/05/09 06:00:16;;;;;;;4.35;2.60;;;;;;;;;;5094491;28;20361;-46
2021/05/09 06:02:42;;;;;;;2.65;2.40;;;;;;;;;;5095391;28;20448;-46
2021/05/09 06:05:08;;;;;;;5.05;2.97;;;;;;;;;;5094945;28;20500;-46
2021/05/09 06:07:34;;;;;;;4.28;2.60;;;;;;;;;;5094583;28;20020;-46
2021/05/09 06:10:00;;;;;;;5.50;2.58;;;;;;;;;;5094774;28;20446;-46
2021/05/09 06:12:26;;;;;;;5.88;3.05;;;;;;;;;;5094640;28;20088;-47
2021/05/09 06:14:52;;;;;;;5.28;2.90;;;;;;;;;;5094672;28;20024;-47
2021/05/09 06:17:18;;;;;;;5.15;2.50;;;;;;;;;;5094804;28;20040;-47
2021/05/09 06:19:44;;;;;;;7.40;3.28;;;;;;;;;;5094492;28;20032;-47
2021/05/09 06:22:10;;;;;;;4.80;2.58;;;;;;;;;;5095024;28;20149;-47
2021/05/09 06:24:36;;;;;;;5.70;3.10;;;;;;;;;;5094673;28;20444;-47
2021/05/09 06:27:02;;;;;;;4.60;2.53;;;;;;;;;;5094441;28;20099;-46
2021/05/09 06:29:28;;;;;;;3.92;2.65;;;;;;;;;;5093640;28;20131;-46
2021/05/09 06:31:54;;;;;;;5.00;2.83;;;;;;;;;;5094355;28;20028;-46
2021/05/09 06:34:20;;;;;;;2.78;2.40;;;;;;;;;;5094297;28;20016;-47
2021/05/09 06:36:46;;;;;;;4.68;2.83;;;;;;;;;;5094582;28;20027;-46
2021/05/09 06:39:12;;;;;;;5.68;2.88;;;;;;;;;;5094137;28;20020;-46
2021/05/09 06:41:38;;;;;;;5.70;3.00;;;;;;;;;;5093927;28;20024;-46
2021/05/09 06:44:08;;;;;;;6.43;2.30;;;;;;;;;;5093669;28;20035;-46
2021/05/09 06:46:34;;;;;;;3.75;2.85;;;;;;;;;;5094381;28;20070;-46
2021/05/09 06:49:01;;;;;;;3.28;2.47;;;;;;;;;;5094045;28;20111;-46
2021/05/09 06:51:27;;;;;;;3.75;2.80;;;;;;;;;;5093928;28;20140;-46
2021/05/09 06:53:55;;;;;;;4.45;2.75;;;;;;;;;;5094278;28;20031;-46
2021/05/09 06:56:21;;;;;;;3.58;2.55;;;;;;;;;;5093591;28;20103;-46
2021/05/09 06:58:47;;;;;;;4.13;2.70;;;;;;;;;;5092077;28;20027;-46
2021/05/09 07:01:13;;;;;;;6.75;2.42;;;;;;;;;;5092791;28;20059;-46
2021/05/09 07:03:39;;;;;;;2.92;2.20;;;;;;;;;;5094452;28;20054;-46
2021/05/09 07:06:06;;;;;;;3.47;2.55;;;;;;;;;;5093845;28;20433;-46
2021/05/09 07:08:32;;;;;;;7.72;2.95;;;;;;;;;;5093437;28;20033;-46
2021/05/09 07:10:58;;;;;;;4.72;3.15;;;;;;;;;;5093186;28;20059;-46
2021/05/09 07:13:24;;;;;;;5.78;3.38;;;;;;;;;;5093497;28;20077;-46
2021/05/09 07:15:50;;;;;;;4.40;2.53;;;;;;;;;;5093897;28;20020;-46
2021/05/09 07:18:20;;;;;;;8.18;3.53;;;;;;;;;;5093296;28;20027;-47
2021/05/09 07:20:51;;;;;;;3.83;2.60;;;;;;;;;;5093499;28;20024;-46
2021/05/09 07:23:17;;;;;;;5.10;2.97;;;;;;;;;;5093879;28;20050;-46
2021/05/09 07:25:44;;;;;;;4.90;2.95;;;;;;;;;;5092898;28;20056;-46
2021/05/09 07:28:10;;;;;;;3.97;3.17;;;;;;;;;;5093538;28;20032;-46
2021/05/09 07:30:37;;;;;;;5.60;2.67;;;;;;;;;;5093208;28;20476;-46
2021/05/09 07:33:04;;;;;;;3.72;2.67;;;;;;;;;;5093685;28;20012;-47
2021/05/09 07:35:30;;;;;;;5.80;3.30;;;;;;;;;;5093194;28;20024;-47
2021/05/09 07:37:56;;;;;;;4.78;2.67;;;;;;;;;;5093674;28;20023;-47
2021/05/09 07:40:24;;;;;;;9.45;4.30;;;;;;;;;;5092316;28;20024;-46
2021/05/09 07:42:51;;;;;;;13.13;4.50;;;;;;;;;;5093189;28;20032;-45
2021/05/09 07:45:19;;;;;;;4.57;3.20;;;;;;;;;;5093802;28;20054;-46
2021/05/09 07:47:46;;;;;;;4.90;3.90;;;;;;;;;;5093477;28;20044;-46
2021/05/09 07:50:12;;;;;;;3.55;3.00;;;;;;;;;;5092403;28;20036;-46
2021/05/09 07:52:39;;;;;;;7.53;4.05;;;;;;;;;;5092539;28;20457;-46
2021/05/09 07:55:05;;;;;;;4.22;2.70;;;;;;;;;;5092954;28;20479;-46
2021/05/09 07:57:31;;;;;;;8.05;2.67;;;;;;;;;;5093300;28;20497;-47
2021/05/09 07:59:57;;;;;;;4.88;3.00;;;;;;;;;;5092804;28;20120;-46
2021/05/09 08:02:23;;;;;;;4.60;3.10;;;;;;;;;;5092685;28;20475;-46
2021/05/09 08:04:49;;;;;;;4.63;2.83;;;;;;;;;;5093127;28;20029;-47
2021/05/09 08:07:15;;;;;;;6.70;3.80;;;;;;;;;;5092481;28;20032;-46
2021/05/09 08:09:41;;;;;;;8.07;3.90;;;;;;;;;;5093287;28;20043;-46
2021/05/09 08:12:07;;;;;;;10.82;3.95;;;;;;;;;;5092306;28;20024;-47
2021/05/09 08:14:33;;;;;;;5.22;1.90;;;;;;;;;;5093006;28;20028;-46
2021/05/09 08:16:59;;;;;;;6.05;2.85;;;;;;;;;;5091584;28;20031;-47
2021/05/09 08:19:25;;;;;;;3.95;2.65;;;;;;;;;;5093008;28;20051;-46
2021/05/09 08:21:51;;;;;;;12.75;2.08;;;;;;;;;;5091367;28;20376;-46
2021/05/09 08:24:18;;;;;;;4.43;1.95;;;;;;;;;;5093185;28;20028;-46
2021/05/09 08:26:44;;;;;;;7.03;2.17;;;;;;;;;;5092658;28;20155;-47
2021/05/09 08:29:10;;;;;;;2.53;1.42;;;;;;;;;;5092735;28;20369;-46
2021/05/09 08:31:36;;;;;;;2.97;1.75;;;;;;;;;;5092667;28;20028;-46
2021/05/09 08:34:03;;;;;;;3.97;1.92;;;;;;;;;;5092010;28;20028;-47
2021/05/09 08:36:29;;;;;;;3.53;2.13;;;;;;;;;;5084816;28;20036;-47
2021/05/09 08:38:55;;;;;;;2.00;1.63;;;;;;;;;;5083717;28;20050;-47
2021/05/09 08:41:22;;;;;;;3.10;1.63;;;;;;;;;;5092542;28;20017;-47
2021/05/09 08:43:48;;;;;;;1.52;1.42;;;;;;;;;;5092414;28;20028;-47
2021/05/09 08:46:14;;;;;;;3.25;1.85;;;;;;;;;;5091737;28;20033;-47
2021/05/09 08:48:41;;;;;;;3.65;1.88;;;;;;;;;;5092502;28;20028;-47
2021/05/09 08:51:07;;;;;;;1.45;1.10;;;;;;;;;;5091918;28;20029;-47
2021/05/09 08:53:33;;;;;;;1.35;1.15;;;;;;;;;;5091250;28;20426;-47
2021/05/09 08:55:59;;;;;;;3.72;1.33;;;;;;;;;;5092499;28;20031;-47
2021/05/09 08:58:25;;;;;;;1.70;1.02;;;;;;;;;;5091703;28;20028;-47
2021/05/09 09:00:51;;;;;;;2.58;1.50;;;;;;;;;;5091878;28;20039;-46
2021/05/09 09:03:18;;;;;;;6.15;1.45;;;;;;;;;;5092400;28;20089;-46
2021/05/09 09:05:45;;;;;;;0.85;0.80;;;;;;;;;;5093950;28;20035;-46
2021/05/09 09:08:13;;;;;;;1.35;1.17;;;;;;;;;;5088298;28;20016;-47
2021/05/09 09:10:46;;;;;;;2.42;1.10;;;;;;;;;;5095540;28;20044;-47
2021/05/09 09:13:23;;;;;;;1.42;1.30;;;;;;;;;;5095965;28;20454;-47
2021/05/09 09:15:55;;;;;;;14.02;1.67;;;;;;;;;;5096139;28;20032;-46
2021/05/09 09:18:25;;;;;;;2.03;1.60;;;;;;;;;;5095895;28;20146;-47
2021/05/09 09:20:51;;;;;;;2.58;1.30;;;;;;;;;;5074961;28;20078;-47
2021/05/09 09:23:17;;;;;;;1.88;1.42;;;;;;;;;;5075463;28;20037;-47
2021/05/09 09:25:43;;;;;;;5.07;3.33;;;;;;;;;;5079360;28;20251;-47
2021/05/09 09:28:09;;;;;;;6.95;2.70;;;;;;;;;;5095415;28;20024;-47
2021/05/09 09:30:49;;;;;;;4.72;2.70;;;;;;;;;;5094861;28;20056;-47
2021/05/09 09:33:16;;;;;;;4.30;2.40;;;;;;;;;;5094894;28;20035;-47
2021/05/09 09:35:43;;;;;;;4.22;2.00;;;;;;;;;;5095622;28;20081;-46
2021/05/09 09:38:21;;;;;;;7.22;2.30;;;;;;;;;;5095108;28;20032;-46
2021/05/09 09:41:06;;;;;;;1.98;1.55;;;;;;;;;;5093996;28;20024;-46
2021/05/09 09:43:32;;;;;;;5.05;1.67;;;;;;;;;;5095119;28;20024;-46
2021/05/09 09:45:58;;;;;;;0.90;0.88;;;;;;;;;;5094531;28;20074;-46
2021/05/09 09:48:42;;;;;;;2.03;1.50;;;;;;;;;;5094408;28;20411;-46
2021/05/09 09:51:08;;;;;;;1.15;1.00;;;;;;;;;;5094902;28;20043;-46
2021/05/09 09:53:44;;;;;;;2.40;1.70;;;;;;;;;;5095293;28;20353;-46
2021/05/09 09:56:14;;;;;;;2.85;1.40;;;;;;;;;;5094974;28;20024;-46
2021/05/09 09:58:46;;;;;;;2.78;1.55;;;;;;;;;;5095250;28;20024;-46
2021/05/09 10:01:14;;;;;;;5.45;2.00;;;;;;;;;;5094606;28;20365;-47
2021/05/09 10:03:40;;;;;;;2.13;1.50;;;;;;;;;;5095138;28;20165;-46
2021/05/09 10:06:06;;;;;;;2.30;1.48;;;;;;;;;;5094763;28;20039;-46
2021/05/09 10:08:33;;;;;;;3.50;1.50;;;;;;;;;;5094524;28;20066;-46
2021/05/09 10:11:00;;;;;;;7.57;2.03;;;;;;;;;;5094170;28;21186;-46
2021/05/09 10:13:26;;;;;;;5.47;1.35;;;;;;;;;;5095002;28;20116;-46
2021/05/09 10:15:56;;;;;;;2.28;1.50;;;;;;;;;;5074246;28;20035;-46
2021/05/09 10:18:22;;;;;;;1.90;1.37;;;;;;;;;;5090027;28;20081;-47
2021/05/09 10:20:49;;;;;;;2.45;1.77;;;;;;;;;;5093520;28;20024;-47
2021/05/09 10:23:17;;;;;;;3.88;1.60;;;;;;;;;;5093680;28;20670;-46
2021/05/09 10:25:44;;;;;;;2.08;1.35;;;;;;;;;;5091843;28;20024;-46
2021/05/09 10:28:11;;;;;;;3.35;1.30;;;;;;;;;;5094976;28;20029;-45
2021/05/09 10:31:03;;;;;;;2.80;1.52;;;;;;;;;;5094050;28;20036;-46
2021/05/09 10:33:39;;;;;;;1.25;1.15;;;;;;;;;;5093857;28;20040;-46
2021/05/09 10:36:16;;;;;;;2.10;1.15;;;;;;;;;;5093831;28;20047;-46
2021/05/09 10:39:01;;;;;;;2.47;1.33;;;;;;;;;;5092576;28;20357;-46
2021/05/09 10:41:27;;;;;;;7.07;1.60;;;;;;;;;;5093140;28;20063;-46
2021/05/09 10:43:53;;;;;;;5.10;1.20;;;;;;;;;;5093425;28;20059;-47
2021/05/09 10:46:19;;;;;;;2.45;1.20;;;;;;;;;;5093095;28;20039;-46
2021/05/09 10:48:45;;;;;;;2.40;1.35;;;;;;;;;;5093186;28;20027;-46
2021/05/09 10:51:14;;;;;;;0.88;0.80;;;;;;;;;;5093168;28;20515;-46
2021/05/09 10:53:41;;;;;;;1.60;1.10;;;;;;;;;;5090804;28;20047;-47
2021/05/09 10:56:08;;;;;;;2.22;1.20;;;;;;;;;;5093686;28;20049;-46
2021/05/09 10:58:40;;;;;;;5.80;1.20;;;;;;;;;;5093797;28;20383;-46
2021/05/09 11:01:09;;;;;;;1.60;1.00;;;;;;;;;;5093928;28;20111;-46
2021/05/09 11:03:39;;;;;;;1.15;1.00;;;;;;;;;;5093250;28;20032;-47
2021/05/09 11:06:05;;;;;;;4.82;1.40;;;;;;;;;;5094171;28;20050;-46
2021/05/09 11:08:51;;;;;;;4.28;2.15;;;;;;;;;;5078208;28;20058;-47
2021/05/09 11:11:26;;;;;;;2.58;1.77;;;;;;;;;;5075424;28;20039;-47
2021/05/09 11:16:27;;;;;;;2.70;1.00;;;;;;;;;;5091698;28;20416;-46
2021/05/09 11:19:02;;;;;;;2.47;1.13;;;;;;;;;;5092751;28;20027;-47
2021/05/09 11:21:31;;;;;;;5.45;1.38;;;;;;;;;;5090557;28;20036;-47
2021/05/09 11:23:57;;;;;;;3.47;1.17;;;;;;;;;;5092085;28;20032;-46
2021/05/09 11:26:24;;;;;;;1.45;1.13;;;;;;;;;;5092294;28;20346;-46
2021/05/09 11:29:05;;;;;;;1.58;1.20;;;;;;;;;;5090332;28;20399;-46
2021/05/09 11:31:32;;;;;;;1.42;1.27;;;;;;;;;;5090456;28;20124;-47
2021/05/09 11:33:58;;;;;;;0.90;0.90;;;;;;;;;;5091641;28;20031;-46
2021/05/09 11:36:25;;;;;;;1.30;1.20;;;;;;;;;;5092287;28;20032;-46
2021/05/09 11:38:51;;;;;;;2.88;1.20;;;;;;;;;;5091289;28;20032;-47
2021/05/09 11:41:17;;;;;;;1.95;1.30;;;;;;;;;;5092796;28;20027;-46
2021/05/09 11:44:02;;;;;;;5.30;1.08;;;;;;;;;;5091972;28;20502;-47
2021/05/09 11:46:34;;;;;;;1.85;1.42;;;;;;;;;;5092177;28;20024;-46
2021/05/09 11:49:29;;;;;;;2.53;1.50;;;;;;;;;;5092476;28;20097;-46
2021/05/09 11:51:55;;;;;;;1.30;1.15;;;;;;;;;;5089853;28;20036;-46
2021/05/09 11:54:21;;;;;;;2.25;1.10;;;;;;;;;;5091504;28;20434;-46
2021/05/09 11:57:06;;;;;;;1.52;1.17;;;;;;;;;;5092668;28;20115;-47
2021/05/09 11:59:35;;;;;;;1.85;1.30;;;;;;;;;;5093424;28;20028;-46
2021/05/09 12:02:21;;;;;;;1.35;1.13;;;;;;;;;;5092659;28;20039;-47
2021/05/09 12:04:57;;;;;;;1.10;0.80;;;;;;;;;;5092800;28;20025;-46
2021/05/09 12:07:27;;;;;;;2.67;1.08;;;;;;;;;;5086581;28;20430;-46
2021/05/09 12:09:55;;;;;;;1.88;1.30;;;;;;;;;;5077423;28;20453;-47
2021/05/09 12:12:22;;;;;;;0.80;0.80;;;;;;;;;;5093015;28;20396;-47
2021/05/09 12:14:50;;;;;;;1.50;1.08;;;;;;;;;;5092772;28;20024;-46
2021/05/09 12:17:19;;;;;;;1.95;1.05;;;;;;;;;;5093232;28;20417;-46
2021/05/09 12:19:45;;;;;;;1.23;1.13;;;;;;;;;;5092786;28;20020;-47
2021/05/09 12:22:12;;;;;;;1.60;1.27;;;;;;;;;;5092546;28;20036;-46
2021/05/09 12:24:47;;;;;;;1.45;1.05;;;;;;;;;;5092980;28;20360;-46
2021/05/09 12:27:13;;;;;;;1.05;0.90;;;;;;;;;;5092797;28;20437;-47
2021/05/09 12:29:46;;;;;;;1.15;1.05;;;;;;;;;;5092729;28;20047;-46
2021/05/09 12:32:15;;;;;;;0.88;0.80;;;;;;;;;;5092836;28;20031;-46
2021/05/09 12:34:41;;;;;;;1.33;0.90;;;;;;;;;;5092820;28;20409;-47
2021/05/09 12:37:10;;;;;;;0.68;0.68;;;;;;;;;;5092676;28;20493;-47
2021/05/09 12:39:37;;;;;;;0.80;0.80;;;;;;;;;;5093914;28;20034;-46
2021/05/09 12:42:04;;;;;;;2.15;1.35;;;;;;;;;;5096460;28;20028;-47
2021/05/09 12:44:30;;;;;;;1.30;1.00;;;;;;;;;;5096543;28;20035;-52
2021/05/09 12:46:57;;;;;;;1.65;1.20;;;;;;;;;;5096796;28;20016;-46
2021/05/09 12:49:26;;;;;;;1.15;1.02;;;;;;;;;;5096450;28;20024;-47
2021/05/09 12:51:59;;;;;;;6.32;0.82;;;;;;;;;;5096350;28;20097;-47
2021/05/09 12:54:34;;;;;;;2.95;0.80;;;;;;;;;;5090752;28;20028;-46
2021/05/09 12:57:19;;;;;;;0.95;0.73;;;;;;;;;;5093119;28;20141;-47
2021/05/09 12:59:54;;;;;;;0.90;0.90;;;;;;;;;;5094255;28;20024;-46
2021/05/09 13:02:22;;;;;;;1.52;1.00;;;;;;;;;;5094329;28;20054;-47
2021/05/09 13:04:51;;;;;;;1.42;1.17;;;;;;;;;;5092372;28;20020;-47
2021/05/09 13:07:18;;;;;;;1.30;0.88;;;;;;;;;;5086335;28;20024;-46
2021/05/09 13:09:45;;;;;;;1.10;0.80;;;;;;;;;;5096073;28;20050;-46
2021/05/09 13:12:12;;;;;;;1.77;1.10;;;;;;;;;;5093702;28;20028;-46
2021/05/09 13:14:42;;;;;;;7.25;1.00;;;;;;;;;;5081488;28;20078;-47
2021/05/09 13:17:09;;;;;;;1.23;1.13;;;;;;;;;;5096127;28;20089;-46
2021/05/09 13:19:35;;;;;;;1.10;1.00;;;;;;;;;;5095660;28;20107;-47
2021/05/09 13:22:01;;;;;;;2.55;0.90;;;;;;;;;;5095940;28;20107;-46
2021/05/09 13:24:27;;;;;;;0.80;0.68;;;;;;;;;;5095383;28;20363;-46
2021/05/09 13:26:53;;;;;;;2.33;0.93;;;;;;;;;;5094617;28;20765;-46
2021/05/09 13:29:19;;;;;;;2.15;0.77;;;;;;;;;;5093661;28;20066;-46
2021/05/09 13:31:45;;;;;;;1.17;0.82;;;;;;;;;;5095041;28;20072;-47
2021/05/09 13:34:11;;;;;;;1.33;0.90;;;;;;;;;;5095594;28;20024;-46
2021/05/09 13:36:37;;;;;;;1.30;1.15;;;;;;;;;;5095639;28;20024;-46
2021/05/09 13:39:04;;;;;;;1.27;0.70;;;;;;;;;;5095321;28;20009;-46
2021/05/09 13:41:30;;;;;;;1.52;1.23;;;;;;;;;;5095159;28;20027;-46
2021/05/09 13:43:56;;;;;;;1.23;1.08;;;;;;;;;;5095801;28;20020;-46
2021/05/09 13:46:24;;;;;;;2.50;1.05;;;;;;;;;;5095245;28;20051;-46
2021/05/09 13:48:50;;;;;;;0.88;0.88;;;;;;;;;;5095426;28;20043;-47
2021/05/09 13:51:16;;;;;;;3.47;1.15;;;;;;;;;;5094183;28;20114;-47
2021/05/09 13:53:42;;;;;;;1.10;1.00;;;;;;;;;;5094883;28;20503;-47
2021/05/09 13:56:08;;;;;;;1.83;1.00;;;;;;;;;;5095437;28;20024;-47
2021/05/09 13:58:34;;;;;;;8.40;4.10;;;;;;;;;;5095295;28;20020;-47
2021/05/09 14:01:00;;;;;;;1.73;0.98;;;;;;;;;;5095062;28;20418;-47
2021/05/09 14:03:26;;;;;;;0.63;0.63;;;;;;;;;;5095326;28;20016;-46
2021/05/09 14:05:52;;;;;;;1.55;1.20;;;;;;;;;;5095372;28;20055;-46
2021/05/09 14:08:18;;;;;;;4.15;0.90;;;;;;;;;;5094607;28;20334;-47
2021/05/09 14:10:44;;;;;;;2.30;1.20;;;;;;;;;;5094429;28;20038;-46
2021/05/09 14:13:10;;;;;;;1.40;1.20;;;;;;;;;;5094695;28;20453;-46
2021/05/09 14:15:39;;;;;;;2.10;0.70;;;;;;;;;;5094005;28;20495;-46
2021/05/09 14:18:05;;;;;;;1.30;1.00;;;;;;;;;;5094605;28;20016;-46
2021/05/09 14:20:31;;;;;;;1.52;1.00;;;;;;;;;;5092211;28;20563;-46
2021/05/09 14:22:57;;;;;;;0.73;0.73;;;;;;;;;;5093962;28;20026;-47
2021/05/09 14:25:23;;;;;;;0.73;0.65;;;;;;;;;;5094464;28;20039;-47
2021/05/09 14:27:50;;;;;;;1.83;1.55;;;;;;;;;;5094368;28;20031;-46
2021/05/09 14:30:16;;;;;;;3.22;1.58;;;;;;;;;;5092849;28;20028;-47
2021/05/09 14:32:42;;;;;;;3.78;1.70;;;;;;;;;;5094008;28;20025;-47
2021/05/09 14:35:08;;;;;;;1.27;1.00;;;;;;;;;;5094506;28;20025;-46
2021/05/09 14:37:34;;;;;;;1.38;0.90;;;;;;;;;;5088089;28;20016;-46
2021/05/09 14:40:01;;;;;;;1.08;0.98;;;;;;;;;;5086931;28;20028;-46
2021/05/09 14:42:27;;;;;;;2.67;1.23;;;;;;;;;;5094165;28;20016;-47
2021/05/09 14:44:53;;;;;;;1.67;1.08;;;;;;;;;;5094554;28;20334;-47
2021/05/09 14:47:19;;;;;;;2.40;1.00;;;;;;;;;;5094192;28;20032;-47
2021/05/09 14:49:47;;;;;;;1.92;1.30;;;;;;;;;;5094380;28;20144;-46
2021/05/09 14:52:13;;;;;;;1.20;1.00;;;;;;;;;;5092413;28;20044;-47